Time;durP1;ratioP1;P1;durP2;ratioP2;P2;SDS_P1;SDS_P2;PMS_P1;PMS_P2;Temp;Humidity;BMP_temperature;BMP_pressure;BME280_temperature;BME280_humidity;BME280_pressure;Samples;Min_cycle;Max_cycle;Signal;HPM_P1;HPM_P2
2023/07/25 00:00:33;;;;;;;7.25;3.20;;;;;;;11.76;100.00;100567.63;4934467;29;20023;-93
2023/07/25 00:02:58;;;;;;;5.73;2.93;;;;;;;11.75;100.00;100571.41;4934043;29;20032;-94
2023/07/25 00:05:24;;;;;;;7.17;2.80;;;;;;;11.77;100.00;100593.41;4934640;29;20032;-94
2023/07/25 00:07:49;;;;;;;5.63;3.30;;;;;;;11.73;100.00;100586.13;4933871;29;20051;-93
2023/07/25 00:10:15;;;;;;;8.07;3.10;;;;;;;11.55;100.00;100564.16;4935441;29;20470;-93
2023/07/25 00:12:41;;;;;;;8.50;3.50;;;;;;;11.74;100.00;100596.63;4956256;29;20036;-93
2023/07/25 00:15:07;;;;;;;9.82;3.45;;;;;;;11.75;100.00;100594.72;4935118;29;20043;-93
2023/07/25 00:17:32;;;;;;;8.68;3.60;;;;;;;11.59;100.00;100569.81;4940569;29;20051;-93
2023/07/25 00:19:58;;;;;;;6.60;3.43;;;;;;;11.70;100.00;100592.88;4948953;29;20111;-93
2023/07/25 00:22:23;;;;;;;6.77;3.77;;;;;;;11.57;100.00;100583.47;4934191;29;20547;-93
2023/07/25 00:24:49;;;;;;;8.15;3.85;;;;;;;11.44;100.00;100567.94;4933485;29;20034;-93
2023/07/25 00:27:14;;;;;;;9.80;3.67;;;;;;;11.44;100.00;100565.25;4933458;29;20370;-93
2023/07/25 00:29:39;;;;;;;6.40;3.20;;;;;;;11.49;100.00;100581.38;4934386;29;20090;-93
2023/07/25 00:32:05;;;;;;;9.07;3.70;;;;;;;11.43;100.00;100583.22;4933727;29;20420;-93
2023/07/25 00:34:30;;;;;;;6.93;4.03;;;;;;;11.31;100.00;100554.00;4934256;29;20279;-93
2023/07/25 00:36:56;;;;;;;8.73;4.00;;;;;;;11.30;100.00;100557.75;4933644;29;20032;-94
2023/07/25 00:39:22;;;;;;;6.13;4.00;;;;;;;11.52;100.00;100581.63;4934114;29;20493;-94
2023/07/25 00:41:47;;;;;;;10.60;4.53;;;;;;;11.47;100.00;100583.50;4933526;29;20039;-95
2023/07/25 00:44:12;;;;;;;9.40;4.30;;;;;;;11.43;100.00;100577.06;4934286;29;20224;-93
2023/07/25 00:46:38;;;;;;;9.50;4.20;;;;;;;11.45;100.00;100581.06;4933318;29;20419;-93
2023/07/25 00:49:04;;;;;;;12.80;4.10;;;;;;;11.45;100.00;100580.28;4933933;29;20543;-93
2023/07/25 00:51:30;;;;;;;5.32;4.18;;;;;;;11.29;100.00;100561.53;4933804;29;20095;-93
2023/07/25 00:53:55;;;;;;;5.67;4.33;;;;;;;11.45;100.00;100588.34;4934353;29;20024;-94
2023/07/25 00:56:21;;;;;;;7.97;4.38;;;;;;;11.35;100.00;100581.88;4933266;29;20032;-94
2023/07/25 00:58:47;;;;;;;7.50;4.47;;;;;;;11.41;100.00;100593.41;4933839;29;20039;-94
2023/07/25 01:01:12;;;;;;;7.88;4.28;;;;;;;11.39;100.00;100589.41;4933358;29;20044;-94
2023/07/25 01:03:39;;;;;;;6.13;4.17;;;;;;;11.29;100.00;100580.28;4933759;29;20031;-94
2023/07/25 01:06:08;;;;;;;12.35;4.95;;;;;;;11.19;100.00;100558.81;4931789;29;20036;-94
2023/07/25 01:08:33;;;;;;;7.85;4.75;;;;;;;11.33;100.00;100580.56;4934145;29;20083;-94
2023/07/25 01:10:59;;;;;;;8.23;4.80;;;;;;;11.30;100.00;100573.84;4933180;29;20035;-94
2023/07/25 01:13:24;;;;;;;8.97;4.00;;;;;;;11.18;100.00;100562.56;4932452;29;20032;-94
2023/07/25 01:15:51;;;;;;;10.60;4.43;;;;;;;11.31;100.00;100575.47;4932993;29;20106;-94
2023/07/25 01:18:17;;;;;;;13.10;4.18;;;;;;;11.06;100.00;100539.53;4933628;29;20088;-94
2023/07/25 01:20:43;;;;;;;9.40;4.20;;;;;;;11.17;100.00;100563.66;4933302;29;20040;-91
2023/07/25 01:23:13;;;;;;;6.78;4.30;;;;;;;11.13;100.00;100562.59;4933770;29;20024;-94
2023/07/25 01:25:39;;;;;;;8.25;4.22;;;;;;;11.23;100.00;100583.25;4932868;29;20499;-94
2023/07/25 01:28:04;;;;;;;6.85;4.20;;;;;;;11.03;100.00;100547.31;4932575;29;20028;-94
2023/07/25 01:30:30;;;;;;;6.43;4.00;;;;;;;11.10;100.00;100568.50;4933519;29;20031;-93
2023/07/25 01:32:56;;;;;;;7.03;4.03;;;;;;;11.04;100.00;100560.44;4956070;29;20027;-93
2023/07/25 01:35:21;;;;;;;8.77;4.03;;;;;;;11.04;100.00;100570.38;4936421;29;20027;-94
2023/07/25 01:37:47;;;;;;;9.57;4.28;;;;;;;11.02;100.00;100553.75;4942500;29;20060;-94
2023/07/25 01:40:12;;;;;;;6.90;4.63;;;;;;;11.05;100.00;100562.03;4945686;29;20487;-93
2023/07/25 01:42:38;;;;;;;6.83;4.30;;;;;;;11.02;100.00;100569.81;4937544;29;20038;-94
2023/07/25 01:45:03;;;;;;;8.63;4.63;;;;;;;10.88;100.00;100556.91;4935623;29;20028;-94
2023/07/25 01:47:29;;;;;;;9.40;4.20;;;;;;;10.82;100.00;100547.28;4936937;29;20439;-93
2023/07/25 01:49:54;;;;;;;7.33;3.90;;;;;;;10.98;100.00;100561.50;4936784;29;20031;-94
2023/07/25 01:52:20;;;;;;;9.48;4.43;;;;;;;10.79;100.00;100544.31;4937161;29;20500;-94
2023/07/25 01:54:48;;;;;;;7.57;4.43;;;;;;;10.75;100.00;100531.47;4936738;29;20098;-93
2023/07/25 01:57:14;;;;;;;10.95;4.85;;;;;;;10.91;100.00;100550.25;4936582;29;20035;-94
2023/07/25 01:59:39;;;;;;;8.07;4.90;;;;;;;10.77;100.00;100536.53;4936838;29;20395;-93
2023/07/25 02:02:05;;;;;;;8.00;4.87;;;;;;;10.71;100.00;100529.56;4935842;29;20031;-93
2023/07/25 02:04:30;;;;;;;9.67;4.40;;;;;;;10.71;100.00;100527.69;4936754;29;20078;-94
2023/07/25 02:06:56;;;;;;;6.15;4.32;;;;;;;10.79;100.00;100549.66;4935161;29;20028;-94
2023/07/25 02:09:21;;;;;;;6.37;4.30;;;;;;;10.75;100.00;100539.50;4936605;29;20498;-93
2023/07/25 02:11:46;;;;;;;6.10;4.67;;;;;;;10.78;100.00;100531.97;4936754;29;20536;-94
2023/07/25 02:14:12;;;;;;;8.47;4.70;;;;;;;10.78;100.00;100543.53;4936509;29;20443;-93
2023/07/25 02:16:37;;;;;;;8.47;4.60;;;;;;;10.78;100.00;100540.00;4936155;29;20114;-94
2023/07/25 02:19:03;;;;;;;7.85;4.57;;;;;;;10.85;100.00;100552.13;4935014;29;20042;-94
2023/07/25 02:21:29;;;;;;;6.55;4.57;;;;;;;10.67;100.00;100518.56;4935128;29;20083;-94
2023/07/25 02:23:54;;;;;;;6.83;4.37;;;;;;;10.85;100.00;100549.44;4936296;29;20036;-94
2023/07/25 02:26:19;;;;;;;9.27;4.87;;;;;;;10.81;100.00;100547.53;4935960;29;20031;-94
2023/07/25 02:28:45;;;;;;;8.07;4.37;;;;;;;10.76;100.00;100540.28;4936269;29;20031;-94
2023/07/25 02:31:10;;;;;;;7.20;4.28;;;;;;;10.72;100.00;100541.88;4936228;29;20618;-94
2023/07/25 02:33:36;;;;;;;5.80;4.50;;;;;;;10.79;100.00;100545.13;4936347;29;20028;-94
2023/07/25 02:36:01;;;;;;;10.03;4.10;;;;;;;10.63;100.00;100530.88;4935956;29;20115;-93
2023/07/25 02:38:27;;;;;;;8.57;4.50;;;;;;;10.70;100.00;100544.84;4936174;29;20118;-95
2023/07/25 02:40:52;;;;;;;8.60;4.38;;;;;;;10.61;100.00;100535.72;4935995;29;20062;-94
2023/07/25 02:43:17;;;;;;;6.73;4.10;;;;;;;10.47;100.00;100526.56;4935952;29;20395;-94
2023/07/25 02:45:43;;;;;;;6.23;4.20;;;;;;;10.51;100.00;100535.69;4935532;29;20394;-93
2023/07/25 02:48:08;;;;;;;8.82;4.20;;;;;;;10.49;100.00;100543.19;4934573;29;20467;-94
2023/07/25 02:50:33;;;;;;;9.17;4.63;;;;;;;10.26;100.00;100518.44;4935335;29;20024;-93
2023/07/25 02:52:59;;;;;;;9.30;4.50;;;;;;;10.35;100.00;100543.66;4958326;29;20028;-94
2023/07/25 02:55:25;;;;;;;8.67;4.50;;;;;;;10.33;100.00;100545.78;4945327;29;20032;-94
2023/07/25 02:57:50;;;;;;;6.05;4.68;;;;;;;10.29;100.00;100540.16;4939587;29;20028;-93
2023/07/25 03:00:15;;;;;;;10.40;4.73;;;;;;;10.28;100.00;100543.91;4959812;29;20039;-94
2023/07/25 03:02:41;;;;;;;8.10;4.35;;;;;;;10.33;100.00;100545.78;4937555;29;20059;-94
2023/07/25 03:05:06;;;;;;;12.33;4.90;;;;;;;10.35;100.00;100546.34;4936375;29;20024;-93
2023/07/25 03:07:32;;;;;;;11.33;4.73;;;;;;;10.27;100.00;100526.22;4935720;29;20019;-93
2023/07/25 03:09:57;;;;;;;7.83;5.00;;;;;;;10.35;100.00;100537.47;4934492;28;20062;-94
2023/07/25 03:12:24;;;;;;;11.80;4.90;;;;;;;10.37;100.00;100533.50;4935405;29;20314;-94
2023/07/25 03:14:49;;;;;;;5.43;4.33;;;;;;;10.36;100.00;100512.31;4935450;29;20051;-94
2023/07/25 03:17:15;;;;;;;12.43;5.17;;;;;;;10.48;100.00;100536.22;4933851;28;20330;-93
2023/07/25 03:19:40;;;;;;;11.90;5.07;;;;;;;10.60;100.00;100536.78;4935587;29;20027;-93
2023/07/25 03:22:06;;;;;;;11.13;5.30;;;;;;;10.65;100.00;100542.16;4935616;29;20023;-94
2023/07/25 03:24:31;;;;;;;11.40;5.00;;;;;;;10.66;100.00;100530.38;4935386;29;20016;-93
2023/07/25 03:26:57;;;;;;;11.37;5.30;;;;;;;10.75;100.00;100536.00;4935131;29;20492;-93
2023/07/25 03:29:22;;;;;;;8.50;5.10;;;;;;;10.78;100.00;100538.16;4935161;29;20487;-94
2023/07/25 03:31:47;;;;;;;10.63;5.77;;;;;;;10.75;100.00;100531.47;4935215;29;20098;-94
2023/07/25 03:34:12;;;;;;;9.40;5.73;;;;;;;10.76;100.00;100524.22;4935342;29;20027;-94
2023/07/25 03:36:38;;;;;;;12.57;5.57;;;;;;;10.75;100.00;100510.03;4935138;29;20515;-94
2023/07/25 03:39:03;;;;;;;12.13;5.33;;;;;;;10.99;100.00;100530.13;4934761;29;20771;-94
2023/07/25 03:41:28;;;;;;;12.30;5.67;;;;;;;11.05;100.00;100532.56;4935179;29;20365;-93
2023/07/25 03:43:54;;;;;;;14.23;6.00;;;;;;;11.02;100.00;100514.31;4934683;29;20075;-93
2023/07/25 03:46:20;;;;;;;10.73;5.95;;;;;;;11.08;100.00;100522.38;4935144;29;20036;-94
2023/07/25 03:48:45;;;;;;;9.50;5.27;;;;;;;11.15;100.00;100534.44;4935429;29;20048;-93
2023/07/25 03:51:10;;;;;;;10.23;5.53;;;;;;;11.28;100.00;100543.00;4935278;29;20067;-94
2023/07/25 03:53:35;;;;;;;11.50;5.77;;;;;;;11.26;100.00;100529.88;4935251;29;20024;-93
2023/07/25 03:56:01;;;;;;;11.60;5.40;;;;;;;11.34;100.00;100533.88;4934772;29;20035;-93
2023/07/25 03:58:26;;;;;;;19.58;5.18;;;;;;;11.31;100.00;100527.19;4934859;29;20051;-93
2023/07/25 04:00:51;;;;;;;11.53;5.73;;;;;;;11.35;100.00;100533.59;4933544;29;20086;-94
2023/07/25 04:03:17;;;;;;;11.00;5.57;;;;;;;11.34;100.00;100533.88;4943974;29;20108;-93
2023/07/25 04:05:42;;;;;;;13.47;5.87;;;;;;;11.43;100.00;100542.97;4944982;29;20023;-93
2023/07/25 04:08:08;;;;;;;9.60;5.75;;;;;;;11.45;100.00;100546.19;4943622;29;20038;-93
2023/07/25 04:10:33;;;;;;;10.20;5.10;;;;;;;11.32;100.00;100517.25;4945345;29;20019;-93
2023/07/25 04:12:58;;;;;;;12.23;5.20;;;;;;;11.47;100.00;100532.53;4943586;29;20036;-93
2023/07/25 04:15:24;;;;;;;8.53;5.37;;;;;;;11.48;100.00;100542.19;4951500;29;20039;-93
2023/07/25 04:17:49;;;;;;;10.93;5.60;;;;;;;11.42;100.00;100529.84;4935281;29;20040;-93
2023/07/25 04:20:14;;;;;;;8.50;5.60;;;;;;;11.40;100.00;100530.13;4948337;29;20039;-93
2023/07/25 04:22:40;;;;;;;15.87;5.90;;;;;;;11.33;100.00;100533.06;4942511;29;20280;-93
2023/07/25 04:25:05;;;;;;;11.93;5.83;;;;;;;11.25;100.00;100522.06;4938997;29;20028;-93
2023/07/25 04:27:31;;;;;;;10.03;5.73;;;;;;;11.29;100.00;100536.56;4935709;29;20028;-93
2023/07/25 04:29:57;;;;;;;8.60;5.68;;;;;;;11.31;100.00;100545.97;4932851;29;20175;-93
2023/07/25 04:32:22;;;;;;;8.32;5.38;;;;;;;11.31;100.00;100545.97;4933911;29;20110;-93
2023/07/25 04:34:47;;;;;;;9.73;5.57;;;;;;;11.30;100.00;100544.34;4934241;29;20035;-93
2023/07/25 04:37:13;;;;;;;10.23;5.67;;;;;;;11.24;100.00;100523.97;4933545;29;20038;-92
2023/07/25 04:39:38;;;;;;;10.80;5.90;;;;;;;11.38;100.00;100540.31;4934033;29;20566;-93
2023/07/25 04:42:04;;;;;;;10.47;6.03;;;;;;;11.32;100.00;100533.34;4933800;29;20700;-93
2023/07/25 04:44:29;;;;;;;11.57;6.20;;;;;;;11.32;100.00;100534.13;4934151;29;20039;-93
2023/07/25 04:46:55;;;;;;;11.10;6.60;;;;;;;11.36;100.00;100529.84;4933255;29;20083;-93
2023/07/25 04:49:20;;;;;;;12.43;6.47;;;;;;;11.53;100.00;100552.91;4934029;29;20315;-93
2023/07/25 04:51:45;;;;;;;13.83;6.60;;;;;;;11.52;100.00;100540.56;4933507;29;20057;-93
2023/07/25 04:54:11;;;;;;;12.73;5.87;;;;;;;11.61;100.00;100543.47;4934193;29;20032;-93
2023/07/25 04:56:36;;;;;;;12.93;6.53;;;;;;;11.75;100.00;100557.97;4933242;29;20540;-93
2023/07/25 04:59:01;;;;;;;9.87;6.30;;;;;;;11.79;100.00;100550.16;4933620;29;20423;-93
2023/07/25 05:01:27;;;;;;;14.90;7.03;;;;;;;12.04;100.00;100548.53;4933649;29;20035;-94
2023/07/25 05:03:52;;;;;;;10.83;6.63;;;;;;;12.34;100.00;100530.66;4933916;29;20032;-93
2023/07/25 05:06:17;;;;;;;10.00;6.10;;;;;;;12.77;100.00;100536.31;4933283;29;20032;-93
2023/07/25 05:08:42;;;;;;;10.53;6.37;;;;;;;13.38;100.00;100544.97;4933798;29;20483;-93
2023/07/25 05:11:08;;;;;;;11.90;6.80;;;;;;;14.27;100.00;100542.94;4935205;29;20103;-93
2023/07/25 05:13:33;;;;;;;9.73;6.28;;;;;;;15.50;100.00;100562.94;4937705;29;20062;-93
2023/07/25 05:15:58;;;;;;;10.23;5.50;;;;;;;16.39;100.00;100560.97;4937085;29;20110;-94
2023/07/25 05:18:24;;;;;;;9.37;5.23;;;;;;;17.13;100.00;100550.13;4937958;29;20024;-94
2023/07/25 05:20:49;;;;;;;9.43;5.37;;;;;;;17.23;100.00;100560.69;4937296;29;20125;-93
2023/07/25 05:23:14;;;;;;;7.87;5.17;;;;;;;17.13;100.00;100566.38;4937837;29;20055;-94
2023/07/25 05:25:40;;;;;;;6.40;4.83;;;;;;;17.38;100.00;100565.72;4937153;29;20513;-93
2023/07/25 05:28:05;;;;;;;9.48;4.65;;;;;;;16.87;100.00;100558.84;4937497;29;20495;-93
2023/07/25 05:30:31;;;;;;;5.90;4.43;;;;;;;16.29;100.00;100550.38;4937011;29;20070;-93
2023/07/25 05:32:57;;;;;;;9.32;5.07;;;;;;;15.88;100.00;100560.13;4937502;29;20024;-93
2023/07/25 05:35:22;;;;;;;8.27;4.73;;;;;;;15.87;100.00;100553.94;4949498;29;20084;-94
2023/07/25 05:37:48;;;;;;;6.33;5.13;;;;;;;15.83;100.00;100543.97;4940191;29;20035;-94
2023/07/25 05:40:13;;;;;;;7.85;4.78;;;;;;;15.67;100.00;100565.09;4938381;29;20066;-96
2023/07/25 05:42:38;;;;;;;9.13;4.73;;;;;;;15.36;100.00;100574.53;4962111;29;20016;-94
2023/07/25 05:45:04;;;;;;;11.60;5.00;;;;;;;15.16;100.00;100578.34;4939228;29;20464;-95
2023/07/25 05:47:29;;;;;;;12.05;5.25;;;;;;;14.99;100.00;100579.69;4937001;28;20036;-95
2023/07/25 05:49:55;;;;;;;8.47;4.80;;;;;;;14.93;100.00;100572.78;4936014;29;20174;-95
2023/07/25 05:52:20;;;;;;;12.53;5.30;;;;;;;15.03;100.00;100581.81;4937621;29;20027;-95
2023/07/25 05:54:46;;;;;;;7.45;5.05;;;;;;;15.28;100.00;100584.09;4937168;29;20679;-95
2023/07/25 05:57:12;;;;;;;8.27;4.37;;;;;;;15.41;100.00;100579.84;4937540;29;20030;-94
2023/07/25 05:59:37;;;;;;;9.90;4.63;;;;;;;15.46;100.00;100568.16;4936963;29;20111;-95
2023/07/25 06:02:06;;;;;;;15.00;5.38;;;;;;;15.73;100.00;100566.56;4935580;28;20082;-95
2023/07/25 06:04:31;;;;;;;8.68;4.70;;;;;;;15.82;100.00;100578.31;4937022;29;20023;-95
2023/07/25 06:06:56;;;;;;;10.00;5.20;;;;;;;15.66;100.00;100566.19;4935578;28;20468;-95
2023/07/25 06:09:22;;;;;;;12.33;4.60;;;;;;;15.57;100.00;100583.06;4936716;29;20051;-95
2023/07/25 06:11:47;;;;;;;11.03;4.40;;;;;;;15.38;100.00;100566.13;4936520;29;20078;-96
2023/07/25 06:14:12;;;;;;;12.38;4.30;;;;;;;15.20;100.00;100568.56;4936796;29;20391;-95
2023/07/25 06:16:38;;;;;;;9.50;4.67;;;;;;;14.98;100.00;100548.41;4936723;29;20514;-95
2023/07/25 06:19:03;;;;;;;9.37;4.50;;;;;;;15.08;100.00;100579.81;4935572;29;20403;-96
2023/07/25 06:21:29;;;;;;;9.20;4.27;;;;;;;14.89;100.00;100554.75;4936057;29;20028;-96
2023/07/25 06:23:54;;;;;;;10.00;4.47;;;;;;;15.05;100.00;100579.63;4936418;29;20031;-95
2023/07/25 06:26:19;;;;;;;10.23;5.10;;;;;;;15.02;100.00;100564.00;4936197;29;20090;-93
2023/07/25 06:28:45;;;;;;;7.90;4.57;;;;;;;15.22;100.00;100577.19;4936794;29;20491;-95
2023/07/25 06:31:10;;;;;;;12.33;4.10;;;;;;;15.35;100.00;100580.22;4935391;29;20045;-95
2023/07/25 06:33:36;;;;;;;10.43;4.68;;;;;;;15.50;100.00;100589.94;4936551;29;20071;-95
2023/07/25 06:36:01;;;;;;;10.83;3.83;;;;;;;15.69;100.00;100592.59;4936139;29;20024;-96
2023/07/25 06:38:27;;;;;;;9.67;3.60;;;;;;;15.59;100.00;100570.06;4936409;29;20028;-95
2023/07/25 06:40:52;;;;;;;10.90;3.85;;;;;;;15.72;100.00;100606.31;4936168;29;20024;-95
2023/07/25 06:43:17;;;;;;;8.20;3.70;;;;;;;15.33;100.00;100575.13;4936021;29;20709;-96
2023/07/25 06:45:43;;;;;;;9.27;3.40;;;;;;;15.11;100.00;100557.66;4934877;29;20484;-95
2023/07/25 06:48:08;;;;;;;6.70;3.03;;;;;;;15.26;100.00;100594.41;4936644;29;20081;-95
2023/07/25 06:50:34;;;;;;;8.77;3.00;;;;;;;14.99;100.00;100541.13;4935394;29;20105;-96
2023/07/25 06:52:59;;;;;;;7.30;3.27;;;;;;;15.14;100.00;100583.28;4935391;29;20042;-96
2023/07/25 06:55:25;;;;;;;8.67;3.00;;;;;;;15.10;100.00;100572.25;4943476;29;20515;-96
2023/07/25 06:57:51;;;;;;;7.07;2.83;;;;;;;15.39;100.00;100589.31;4945163;29;20071;-96
2023/07/25 07:00:16;;;;;;;10.83;2.80;;;;;;;15.44;100.00;100578.44;4936522;29;20393;-93
2023/07/25 07:02:42;;;;;;;12.68;2.88;;;;;;;15.48;100.00;100568.66;4956884;29;20016;-94
2023/07/25 07:05:08;;;;;;;8.45;3.05;;;;;;;15.99;100.00;100593.16;4942324;29;20107;-94
2023/07/25 07:07:33;;;;;;;8.33;2.80;;;;;;;16.31;100.00;100575.19;4936361;29;20039;-96
2023/07/25 07:09:59;;;;;;;11.03;3.00;;;;;;;16.77;100.00;100603.16;4936489;29;20357;-96
2023/07/25 07:12:24;;;;;;;8.93;2.50;;;;;;;16.84;100.00;100591.91;4934930;28;20314;-95
2023/07/25 07:14:50;;;;;;;9.63;2.40;;;;;;;16.95;100.00;100587.91;4935410;29;20032;-96
2023/07/25 07:17:17;;;;;;;5.68;2.20;;;;;;;17.15;100.00;100608.25;4935618;29;20037;-96
2023/07/25 07:19:47;;;;;;;8.32;2.30;;;;;;;17.19;100.00;100562.41;4940261;29;20096;-96
2023/07/25 07:22:23;;;;;;;7.07;2.10;;;;;;;17.61;100.00;100565.69;4946226;29;20027;-96
2023/07/25 07:25:10;;;;;;;8.73;2.17;;;;;;;17.88;98.06;100582.03;4952974;29;20048;-96
2023/07/25 07:27:39;;;;;;;5.30;1.90;;;;;;;18.15;95.05;100594.59;4936185;29;20303;-95
2023/07/25 07:30:28;;;;;;;9.00;2.10;;;;;;;17.94;93.63;100573.47;4940048;29;20032;-96
2023/07/25 07:33:13;;;;;;;9.27;2.00;;;;;;;17.76;93.47;100574.50;4951510;29;20026;-96
2023/07/25 07:35:49;;;;;;;9.85;2.05;;;;;;;17.73;93.09;100572.41;4955256;29;20024;-96
2023/07/25 07:38:17;;;;;;;6.88;1.92;;;;;;;17.77;94.38;100581.53;4953155;29;20176;-96
2023/07/25 07:41:23;;;;;;;5.97;1.92;;;;;;;17.78;94.74;100580.41;4953299;29;20043;-96
2023/07/25 07:43:51;;;;;;;8.60;2.25;;;;;;;17.72;93.06;100579.75;4950415;29;20036;-96
2023/07/25 07:46:16;;;;;;;9.40;2.85;;;;;;;17.94;95.58;100610.63;4939765;29;20485;-95
2023/07/25 07:48:46;;;;;;;8.40;2.57;;;;;;;18.05;94.37;100617.38;4944413;29;20043;-95
2023/07/25 07:51:12;;;;;;;7.82;1.92;;;;;;;17.98;89.27;100620.53;4946296;29;20245;-96
2023/07/25 07:53:38;;;;;;;10.37;2.30;;;;;;;17.93;91.71;100601.66;4938655;29;20048;-96
2023/07/25 07:56:15;;;;;;;8.02;1.75;;;;;;;17.93;90.11;100631.50;4940127;29;20028;-96
2023/07/25 07:58:40;;;;;;;9.10;2.10;;;;;;;17.88;90.97;100618.09;4923598;29;20050;-95
2023/07/25 08:01:21;;;;;;;6.40;1.60;;;;;;;18.17;93.36;100619.50;4938410;29;20031;-95
2023/07/25 08:03:56;;;;;;;9.38;1.85;;;;;;;17.87;88.42;100600.22;5064483;23;20047;-96
2023/07/25 08:06:24;;;;;;;8.38;1.90;;;;;;;17.35;86.68;100596.13;4939752;29;20118;-96
2023/07/25 08:08:50;;;;;;;7.40;2.00;;;;;;;17.03;91.67;100594.50;4956148;28;20059;-96
2023/07/25 08:11:18;;;;;;;5.10;2.00;;;;;;;17.16;90.83;100645.06;4947645;29;20298;-95
2023/07/25 08:13:44;;;;;;;7.47;1.60;;;;;;;16.92;91.62;100656.13;4952166;29;20048;-96
2023/07/25 08:16:11;;;;;;;10.93;1.80;;;;;;;16.44;92.20;100623.06;4957422;29;20094;-96
2023/07/25 08:18:40;;;;;;;7.45;2.08;;;;;;;16.19;94.12;100602.75;5037663;23;20040;-96
2023/07/25 08:21:08;;;;;;;7.07;1.88;;;;;;;16.26;93.38;100629.38;4948982;29;20039;-96
2023/07/25 08:23:36;;;;;;;7.38;1.70;;;;;;;16.44;94.35;100646.59;4938353;29;20024;-96
2023/07/25 08:26:16;;;;;;;7.63;1.73;;;;;;;16.43;91.78;100605.22;4935149;29;20038;-96
2023/07/25 08:28:52;;;;;;;7.97;1.45;;;;;;;16.98;90.26;100627.88;5180429;23;20058;-96
2023/07/25 08:31:23;;;;;;;5.93;1.58;;;;;;;17.49;86.82;100650.22;4945595;29;20050;-96
2023/07/25 08:34:00;;;;;;;8.07;1.80;;;;;;;17.46;82.75;100634.59;5037350;23;20051;-96
2023/07/25 08:36:34;;;;;;;11.23;1.58;;;;;;;17.76;86.03;100655.78;4976306;23;20047;-96
2023/07/25 08:41:52;;;;;;;4.40;1.47;;;;;;;17.89;84.19;100637.84;4949392;29;20378;-96
2023/07/25 08:44:21;;;;;;;3.30;1.35;;;;;;;18.08;82.28;100635.72;4948646;29;20039;-96
2023/07/25 08:47:31;;;;;;;4.78;1.10;;;;;;;18.48;83.60;100624.03;4945111;29;20024;-96
2023/07/25 08:52:52;;;;;;;6.78;1.48;;;;;;;19.26;73.17;100646.13;5007533;23;20063;-96
2023/07/25 08:55:20;;;;;;;6.57;1.42;;;;;;;19.28;72.10;100652.84;4953483;29;20030;-96
2023/07/25 08:57:55;;;;;;;4.07;1.30;;;;;;;19.25;66.98;100653.50;4951650;29;20031;-96
2023/07/25 09:00:22;;;;;;;2.70;1.25;;;;;;;19.29;67.50;100635.41;4950230;29;20047;-96
2023/07/25 09:02:51;;;;;;;5.18;1.20;;;;;;;19.55;67.84;100639.19;4934794;29;20035;-96
2023/07/25 09:05:21;;;;;;;4.83;1.30;;;;;;;19.98;68.67;100681.81;4952438;28;20040;-96
2023/07/25 09:07:58;;;;;;;3.17;1.03;;;;;;;19.80;66.59;100649.22;4953070;29;20267;-96
2023/07/25 09:10:27;;;;;;;5.85;1.50;;;;;;;19.72;63.41;100684.56;4954966;29;20022;-96
2023/07/25 09:12:54;;;;;;;5.18;1.27;;;;;;;19.43;63.74;100676.00;4951073;29;20054;-96
2023/07/25 09:15:29;;;;;;;3.97;1.00;;;;;;;19.29;65.19;100645.50;4952558;29;20035;-95
2023/07/25 09:18:11;;;;;;;6.68;1.48;;;;;;;19.21;63.09;100644.38;4957781;28;20040;-96
2023/07/25 09:20:38;;;;;;;2.13;1.10;;;;;;;19.37;64.78;100659.06;4955724;28;20047;-96
2023/07/25 09:23:10;;;;;;;5.20;1.45;;;;;;;19.12;64.18;100644.41;4939627;29;20019;-96
2023/07/25 09:26:16;;;;;;;4.00;1.50;;;;;;;19.29;68.49;100680.81;4954364;29;20035;-96
2023/07/25 09:29:26;;;;;;;4.13;1.55;;;;;;;19.01;67.11;100668.34;4937468;29;20039;-96
2023/07/25 09:32:27;;;;;;;5.80;1.43;;;;;;;18.63;67.86;100641.78;4958283;29;20055;-96
2023/07/25 09:35:36;;;;;;;4.37;1.40;;;;;;;19.51;69.71;100683.34;4957106;29;20316;-96
2023/07/25 09:38:48;;;;;;;6.43;1.10;;;;;;;19.70;65.29;100646.06;4952550;29;20051;-96
2023/07/25 09:41:41;;;;;;;6.03;1.38;;;;;;;20.22;62.24;100667.63;4956286;29;20100;-96
2023/07/25 09:44:28;;;;;;;3.13;1.50;;;;;;;19.84;61.53;100641.19;4959017;29;20031;-96
2023/07/25 09:47:09;;;;;;;3.95;1.40;;;;;;;19.84;62.20;100646.63;4959690;29;20063;-96
2023/07/25 09:49:46;;;;;;;5.57;1.20;;;;;;;19.70;59.31;100655.00;4956435;29;20052;-96
2023/07/25 09:52:17;;;;;;;4.25;1.30;;;;;;;19.55;62.11;100653.59;4955426;29;20093;-96
2023/07/25 09:54:48;;;;;;;4.78;1.30;;;;;;;19.77;59.81;100641.72;4940137;29;20035;-96
2023/07/25 09:57:35;;;;;;;2.05;1.17;;;;;;;20.54;63.15;100689.88;4957437;29;20075;-96
2023/07/25 10:00:20;;;;;;;4.83;1.43;;;;;;;20.73;61.13;100659.50;4960569;29;20043;-96
2023/07/25 10:02:49;;;;;;;7.07;1.60;;;;;;;21.02;54.73;100654.34;4960382;29;20290;-96
2023/07/25 10:05:25;;;;;;;5.30;1.50;;;;;;;21.11;53.74;100651.56;4960970;29;20032;-96
2023/07/25 10:07:53;;;;;;;5.40;1.30;;;;;;;21.09;53.14;100653.81;4961768;29;20088;-96
2023/07/25 10:10:33;;;;;;;3.33;1.33;;;;;;;21.11;55.30;100649.63;4960691;29;20072;-96
2023/07/25 10:13:06;;;;;;;4.32;1.30;;;;;;;20.97;54.05;100690.78;4959779;29;20046;-96
2023/07/25 10:15:52;;;;;;;5.25;1.50;;;;;;;20.19;55.93;100646.53;4936271;29;20046;-96
2023/07/25 10:18:36;;;;;;;3.45;1.13;;;;;;;19.79;56.50;100652.28;4952787;29;20107;-96
2023/07/25 10:21:02;;;;;;;5.50;1.48;;;;;;;19.61;58.04;100656.94;4939397;29;20082;-96
2023/07/25 10:23:37;;;;;;;3.27;1.30;;;;;;;19.73;60.92;100676.09;4956172;29;20303;-96
2023/07/25 10:26:23;;;;;;;;;;;;;;;;;;;;;
2023/07/25 10:29:13;;;;;;;5.10;1.30;;;;;;;20.19;57.77;100641.09;4956242;29;20078;-96
2023/07/25 10:31:56;;;;;;;6.38;1.30;;;;;;;20.46;55.27;100632.78;4956382;29;20113;-96
2023/07/25 10:35:00;;;;;;;5.85;1.38;;;;;;;20.41;54.12;100640.03;4957537;29;20055;-96
2023/07/25 10:37:43;;;;;;;4.47;1.42;;;;;;;20.07;56.13;100641.81;4940545;29;20043;-96
2023/07/25 10:40:20;;;;;;;6.80;1.50;;;;;;;20.59;53.84;100672.56;4956873;29;20069;-96
2023/07/25 10:43:11;;;;;;;4.07;1.30;;;;;;;21.17;53.88;100674.75;4940363;29;20296;-96
2023/07/25 10:46:35;;;;;;;;;;;;;;;;;;;;;
2023/07/25 10:50:14;;;;;;;;;;;;;;;;;;;;;
2023/07/25 10:55:36;;;;;;;3.42;1.20;;;;;;;21.01;53.16;100672.59;4999567;23;19911;-96
2023/07/25 11:01:29;;;;;;;5.15;1.10;;;;;;;20.33;50.85;100627.25;5245701;23;20056;-96
2023/07/25 11:15:13;;;;;;;6.60;1.25;;;;;;;21.24;51.19;100676.94;5277902;23;20036;-95
2023/07/25 11:23:28;;;;;;;4.72;1.23;;;;;;;21.48;53.23;100657.16;5094086;23;20381;-96
2023/07/25 14:25:32;;;;;;;3.80;1.00;;;;;;;22.41;43.32;100698.75;5278089;23;20060;-96
2023/07/25 15:36:34;;;;;;;3.20;1.15;;;;;;;23.65;39.32;100744.94;2222243;23;21228;-96
2023/07/25 15:39:01;;;;;;;1.52;0.80;;;;;;;24.07;39.41;100782.06;4954865;29;20036;-96
2023/07/25 15:41:27;;;;;;;2.10;1.10;;;;;;;23.97;36.91;100754.06;4955494;29;20388;-96
2023/07/25 15:43:52;;;;;;;1.10;1.00;;;;;;;23.94;36.83;100751.97;4951210;29;20035;-96
2023/07/25 15:46:27;;;;;;;3.35;0.80;;;;;;;23.98;38.43;100788.47;4950074;29;20031;-96
2023/07/25 15:48:58;;;;;;;3.53;1.20;;;;;;;24.12;38.93;100779.03;4937161;29;20055;-96
2023/07/25 15:51:38;;;;;;;1.27;0.88;;;;;;;24.25;39.50;100757.88;4950417;29;20055;-96
2023/07/25 15:54:18;;;;;;;2.67;1.00;;;;;;;24.41;38.08;100768.81;4955061;29;20027;-96
2023/07/25 15:56:45;;;;;;;2.08;1.00;;;;;;;24.53;37.15;100781.63;4954428;29;20063;-96
2023/07/25 15:59:12;;;;;;;1.75;0.90;;;;;;;24.49;35.69;100745.91;4935772;29;20031;-96
2023/07/25 16:01:40;;;;;;;4.78;1.20;;;;;;;24.50;37.82;100753.00;4951658;29;20028;-96
2023/07/25 16:04:08;;;;;;;2.35;1.17;;;;;;;24.34;38.12;100758.50;4951260;28;20031;-96
2023/07/25 16:06:34;;;;;;;2.57;1.20;;;;;;;24.22;37.11;100788.66;4948812;29;20036;-96
2023/07/25 16:09:01;;;;;;;2.10;1.17;;;;;;;23.87;37.30;100751.81;4933014;29;20359;-95